sensor_id;sensor_type;location;lat;lon;timestamp;temperature;humidity
7163;DHT22;3623;47.098;15.446;2022-12-07T00:00:44;0.90;99.90
7163;DHT22;3623;47.098;15.446;2022-12-07T00:03:12;1.00;99.90
7163;DHT22;3623;47.098;15.446;2022-12-07T00:05:39;0.80;99.90
7163;DHT22;3623;47.098;15.446;2022-12-07T00:08:06;0.70;99.90
7163;DHT22;3623;47.098;15.446;2022-12-07T00:10:34;0.70;99.90
7163;DHT22;3623;47.098;15.446;2022-12-07T00:13:01;0.90;99.90
7163;DHT22;3623;47.098;15.446;2022-12-07T00:15:29;0.70;99.90
7163;DHT22;3623;47.098;15.446;2022-12-07T00:17:56;0.70;99.90
7163;DHT22;3623;47.098;15.446;2022-12-07T00:20:44;0.80;99.90
7163;DHT22;3623;47.098;15.446;2022-12-07T00:23:11;0.80;99.90
7163;DHT22;3623;47.098;15.446;2022-12-07T00:25:38;1.00;99.90
7163;DHT22;3623;47.098;15.446;2022-12-07T00:28:05;0.80;99.90
7163;DHT22;3623;47.098;15.446;2022-12-07T00:30:42;0.90;99.90
7163;DHT22;3623;47.098;15.446;2022-12-07T00:33:09;0.70;99.90
7163;DHT22;3623;47.098;15.446;2022-12-07T00:35:36;0.80;99.90
7163;DHT22;3623;47.098;15.446;2022-12-07T00:38:04;0.70;99.90
7163;DHT22;3623;47.098;15.446;2022-12-07T00:40:31;1.40;99.90
7163;DHT22;3623;47.098;15.446;2022-12-07T00:42:58;1.00;99.90
7163;DHT22;3623;47.098;15.446;2022-12-07T00:45:25;1.00;99.90
7163;DHT22;3623;47.098;15.446;2022-12-07T00:47:52;0.90;99.90
7163;DHT22;3623;47.098;15.446;2022-12-07T00:50:21;0.80;99.90
7163;DHT22;3623;47.098;15.446;2022-12-07T00:52:48;0.70;99.90
7163;DHT22;3623;47.098;15.446;2022-12-07T00:55:16;0.60;99.90
7163;DHT22;3623;47.098;15.446;2022-12-07T00:57:43;0.60;99.90
7163;DHT22;3623;47.098;15.446;2022-12-07T01:00:11;0.60;99.90
7163;DHT22;3623;47.098;15.446;2022-12-07T01:02:38;0.60;99.90
7163;DHT22;3623;47.098;15.446;2022-12-07T01:05:06;0.70;99.90
7163;DHT22;3623;47.098;15.446;2022-12-07T01:07:34;0.70;99.90
7163;DHT22;3623;47.098;15.446;2022-12-07T01:10:01;0.70;99.90
7163;DHT22;3623;47.098;15.446;2022-12-07T01:12:30;0.70;99.90
7163;DHT22;3623;47.098;15.446;2022-12-07T01:14:57;0.70;99.90
7163;DHT22;3623;47.098;15.446;2022-12-07T01:17:24;0.70;99.90
7163;DHT22;3623;47.098;15.446;2022-12-07T01:19:51;0.60;99.90
7163;DHT22;3623;47.098;15.446;2022-12-07T01:22:18;0.60;99.90
7163;DHT22;3623;47.098;15.446;2022-12-07T01:24:45;0.70;99.90
7163;DHT22;3623;47.098;15.446;2022-12-07T01:27:13;0.90;99.90
7163;DHT22;3623;47.098;15.446;2022-12-07T01:29:42;0.80;99.90
7163;DHT22;3623;47.098;15.446;2022-12-07T01:32:09;0.80;99.90
7163;DHT22;3623;47.098;15.446;2022-12-07T01:34:36;0.70;99.90
7163;DHT22;3623;47.098;15.446;2022-12-07T01:37:03;0.70;99.90
7163;DHT22;3623;47.098;15.446;2022-12-07T01:39:31;0.70;99.90
7163;DHT22;3623;47.098;15.446;2022-12-07T01:41:58;0.70;99.90
7163;DHT22;3623;47.098;15.446;2022-12-07T01:44:26;0.70;99.90
7163;DHT22;3623;47.098;15.446;2022-12-07T01:46:58;0.70;99.90
7163;DHT22;3623;47.098;15.446;2022-12-07T01:49:29;0.80;99.90
7163;DHT22;3623;47.098;15.446;2022-12-07T01:52:05;0.80;99.90
7163;DHT22;3623;47.098;15.446;2022-12-07T01:54:35;0.90;99.90
7163;DHT22;3623;47.098;15.446;2022-12-07T01:57:03;0.80;99.90
7163;DHT22;3623;47.098;15.446;2022-12-07T01:59:31;0.80;99.90
7163;DHT22;3623;47.098;15.446;2022-12-07T02:02:02;0.80;99.90
7163;DHT22;3623;47.098;15.446;2022-12-07T02:04:32;0.90;99.90
7163;DHT22;3623;47.098;15.446;2022-12-07T02:06:59;0.80;99.90
7163;DHT22;3623;47.098;15.446;2022-12-07T02:09:26;0.80;99.90
7163;DHT22;3623;47.098;15.446;2022-12-07T02:11:56;0.80;99.90
7163;DHT22;3623;47.098;15.446;2022-12-07T02:14:24;0.70;99.90
7163;DHT22;3623;47.098;15.446;2022-12-07T02:17:06;0.70;99.90
7163;DHT22;3623;47.098;15.446;2022-12-07T02:20:00;0.70;99.90
7163;DHT22;3623;47.098;15.446;2022-12-07T02:22:51;0.70;99.90
7163;DHT22;3623;47.098;15.446;2022-12-07T02:25:33;0.70;99.90
7163;DHT22;3623;47.098;15.446;2022-12-07T02:28:07;0.70;99.90
7163;DHT22;3623;47.098;15.446;2022-12-07T02:30:44;0.80;99.90
7163;DHT22;3623;47.098;15.446;2022-12-07T02:33:16;0.80;99.90
7163;DHT22;3623;47.098;15.446;2022-12-07T02:35:48;0.70;99.90
7163;DHT22;3623;47.098;15.446;2022-12-07T02:38:22;0.70;99.90
7163;DHT22;3623;47.098;15.446;2022-12-07T02:40:54;0.70;99.90
7163;DHT22;3623;47.098;15.446;2022-12-07T02:43:24;0.50;99.90
7163;DHT22;3623;47.098;15.446;2022-12-07T02:45:55;0.50;99.90
7163;DHT22;3623;47.098;15.446;2022-12-07T02:48:25;0.50;99.90
7163;DHT22;3623;47.098;15.446;2022-12-07T02:50:53;0.40;99.90
7163;DHT22;3623;47.098;15.446;2022-12-07T02:53:31;0.40;99.90
7163;DHT22;3623;47.098;15.446;2022-12-07T02:56:00;0.40;99.90
7163;DHT22;3623;47.098;15.446;2022-12-07T02:58:39;0.40;99.90
7163;DHT22;3623;47.098;15.446;2022-12-07T03:01:18;0.40;99.90
7163;DHT22;3623;47.098;15.446;2022-12-07T03:03:57;0.40;99.90
7163;DHT22;3623;47.098;15.446;2022-12-07T03:06:30;0.30;99.90
7163;DHT22;3623;47.098;15.446;2022-12-07T03:09:08;0.30;99.90
7163;DHT22;3623;47.098;15.446;2022-12-07T03:11:46;0.00;99.90
7163;DHT22;3623;47.098;15.446;2022-12-07T03:14:16;0.30;99.90
7163;DHT22;3623;47.098;15.446;2022-12-07T03:16:49;0.30;99.90
7163;DHT22;3623;47.098;15.446;2022-12-07T03:19:21;0.20;99.90
7163;DHT22;3623;47.098;15.446;2022-12-07T03:21:53;0.20;99.90
7163;DHT22;3623;47.098;15.446;2022-12-07T03:24:26;0.20;99.90
7163;DHT22;3623;47.098;15.446;2022-12-07T03:26:59;0.20;99.90
7163;DHT22;3623;47.098;15.446;2022-12-07T03:29:30;0.20;99.90
7163;DHT22;3623;47.098;15.446;2022-12-07T03:32:04;0.20;99.90
7163;DHT22;3623;47.098;15.446;2022-12-07T03:34:35;0.20;99.90
7163;DHT22;3623;47.098;15.446;2022-12-07T03:37:07;0.20;99.90
7163;DHT22;3623;47.098;15.446;2022-12-07T03:39:39;0.10;99.90
7163;DHT22;3623;47.098;15.446;2022-12-07T03:42:10;0.10;99.90
7163;DHT22;3623;47.098;15.446;2022-12-07T03:44:40;0.20;99.90
7163;DHT22;3623;47.098;15.446;2022-12-07T03:47:13;0.00;99.90
7163;DHT22;3623;47.098;15.446;2022-12-07T03:49:45;0.00;99.90
7163;DHT22;3623;47.098;15.446;2022-12-07T03:52:20;0.00;99.90
7163;DHT22;3623;47.098;15.446;2022-12-07T03:54:55;0.10;99.90
7163;DHT22;3623;47.098;15.446;2022-12-07T03:57:25;0.10;99.90
7163;DHT22;3623;47.098;15.446;2022-12-07T03:59:54;0.00;99.90
7163;DHT22;3623;47.098;15.446;2022-12-07T04:02:24;0.00;99.90
7163;DHT22;3623;47.098;15.446;2022-12-07T04:04:52;0.10;99.90
7163;DHT22;3623;47.098;15.446;2022-12-07T04:07:19;0.00;99.90
7163;DHT22;3623;47.098;15.446;2022-12-07T04:09:46;0.00;99.90
7163;DHT22;3623;47.098;15.446;2022-12-07T04:12:13;0.00;99.90
7163;DHT22;3623;47.098;15.446;2022-12-07T04:14:40;0.00;99.90
7163;DHT22;3623;47.098;15.446;2022-12-07T04:17:08;0.10;99.90
7163;DHT22;3623;47.098;15.446;2022-12-07T04:19:37;-0.10;99.90
7163;DHT22;3623;47.098;15.446;2022-12-07T04:22:04;-0.10;99.90
7163;DHT22;3623;47.098;15.446;2022-12-07T04:24:32;0.10;99.90
7163;DHT22;3623;47.098;15.446;2022-12-07T04:26:59;0.00;99.90
7163;DHT22;3623;47.098;15.446;2022-12-07T04:29:26;-0.10;99.90
7163;DHT22;3623;47.098;15.446;2022-12-07T04:31:53;-0.10;99.90
7163;DHT22;3623;47.098;15.446;2022-12-07T04:34:21;-0.20;99.90
7163;DHT22;3623;47.098;15.446;2022-12-07T04:36:49;-0.10;99.90
7163;DHT22;3623;47.098;15.446;2022-12-07T04:39:20;-0.20;99.90
7163;DHT22;3623;47.098;15.446;2022-12-07T04:41:47;-0.10;99.90
7163;DHT22;3623;47.098;15.446;2022-12-07T04:44:15;-0.20;99.90
7163;DHT22;3623;47.098;15.446;2022-12-07T04:46:42;0.00;99.90
7163;DHT22;3623;47.098;15.446;2022-12-07T04:49:10;-0.20;99.90
7163;DHT22;3623;47.098;15.446;2022-12-07T04:51:38;0.00;99.90
7163;DHT22;3623;47.098;15.446;2022-12-07T04:54:07;-0.20;99.90
7163;DHT22;3623;47.098;15.446;2022-12-07T04:56:34;-0.20;99.90
7163;DHT22;3623;47.098;15.446;2022-12-07T04:59:03;-0.20;99.90
7163;DHT22;3623;47.098;15.446;2022-12-07T05:01:36;0.00;99.90
7163;DHT22;3623;47.098;15.446;2022-12-07T05:04:03;-0.20;99.90
7163;DHT22;3623;47.098;15.446;2022-12-07T05:06:31;-0.30;99.90
7163;DHT22;3623;47.098;15.446;2022-12-07T05:08:58;-0.30;99.90
7163;DHT22;3623;47.098;15.446;2022-12-07T05:11:26;-0.30;99.90
7163;DHT22;3623;47.098;15.446;2022-12-07T05:14:08;-0.30;99.90
7163;DHT22;3623;47.098;15.446;2022-12-07T05:16:35;-0.40;99.90
7163;DHT22;3623;47.098;15.446;2022-12-07T05:19:03;-0.40;99.90
7163;DHT22;3623;47.098;15.446;2022-12-07T05:21:30;-0.20;99.90
7163;DHT22;3623;47.098;15.446;2022-12-07T05:23:57;-0.40;99.90
7163;DHT22;3623;47.098;15.446;2022-12-07T05:26:26;-0.40;99.90
7163;DHT22;3623;47.098;15.446;2022-12-07T05:28:54;-0.40;99.90
7163;DHT22;3623;47.098;15.446;2022-12-07T05:31:22;-0.40;99.90
7163;DHT22;3623;47.098;15.446;2022-12-07T05:33:49;-0.40;99.90
7163;DHT22;3623;47.098;15.446;2022-12-07T05:36:16;-0.50;99.90
7163;DHT22;3623;47.098;15.446;2022-12-07T05:38:44;-0.40;99.90
7163;DHT22;3623;47.098;15.446;2022-12-07T05:41:13;-0.50;99.90
7163;DHT22;3623;47.098;15.446;2022-12-07T05:43:56;-0.60;99.90
7163;DHT22;3623;47.098;15.446;2022-12-07T05:46:23;-0.40;99.90
7163;DHT22;3623;47.098;15.446;2022-12-07T05:48:50;-0.70;99.90
7163;DHT22;3623;47.098;15.446;2022-12-07T05:51:18;-0.80;99.90
7163;DHT22;3623;47.098;15.446;2022-12-07T05:53:45;-0.80;99.90
7163;DHT22;3623;47.098;15.446;2022-12-07T05:56:12;-0.80;99.90
7163;DHT22;3623;47.098;15.446;2022-12-07T05:58:39;-0.90;99.90
7163;DHT22;3623;47.098;15.446;2022-12-07T06:01:26;-0.90;99.90
7163;DHT22;3623;47.098;15.446;2022-12-07T06:03:54;-0.90;99.90
7163;DHT22;3623;47.098;15.446;2022-12-07T06:06:21;-0.90;99.90
7163;DHT22;3623;47.098;15.446;2022-12-07T06:08:48;-0.90;99.90
7163;DHT22;3623;47.098;15.446;2022-12-07T06:11:16;-0.90;99.90
7163;DHT22;3623;47.098;15.446;2022-12-07T06:14:00;-0.70;99.90
7163;DHT22;3623;47.098;15.446;2022-12-07T06:16:29;-1.00;99.90
7163;DHT22;3623;47.098;15.446;2022-12-07T06:18:56;-0.80;99.90
7163;DHT22;3623;47.098;15.446;2022-12-07T06:21:23;-1.00;99.90
7163;DHT22;3623;47.098;15.446;2022-12-07T06:23:52;-0.90;99.90
7163;DHT22;3623;47.098;15.446;2022-12-07T06:26:19;-1.00;99.90
7163;DHT22;3623;47.098;15.446;2022-12-07T06:28:46;-1.00;99.90
7163;DHT22;3623;47.098;15.446;2022-12-07T06:31:14;-1.00;99.90
7163;DHT22;3623;47.098;15.446;2022-12-07T06:33:42;-1.00;99.90
7163;DHT22;3623;47.098;15.446;2022-12-07T06:36:10;-1.20;99.90
7163;DHT22;3623;47.098;15.446;2022-12-07T06:38:37;-1.20;99.90
7163;DHT22;3623;47.098;15.446;2022-12-07T06:41:04;-1.10;99.90
7163;DHT22;3623;47.098;15.446;2022-12-07T06:43:32;-1.30;99.90
7163;DHT22;3623;47.098;15.446;2022-12-07T06:45:59;-1.00;99.90
7163;DHT22;3623;47.098;15.446;2022-12-07T06:48:26;-1.30;99.90
7163;DHT22;3623;47.098;15.446;2022-12-07T06:50:55;-1.00;99.90
7163;DHT22;3623;47.098;15.446;2022-12-07T06:53:22;-1.10;99.90
7163;DHT22;3623;47.098;15.446;2022-12-07T06:55:49;-0.80;99.90
7163;DHT22;3623;47.098;15.446;2022-12-07T06:58:17;-1.00;99.90
7163;DHT22;3623;47.098;15.446;2022-12-07T07:00:45;-0.90;99.90
7163;DHT22;3623;47.098;15.446;2022-12-07T07:03:12;-0.80;99.90
7163;DHT22;3623;47.098;15.446;2022-12-07T07:05:39;-0.80;99.90
7163;DHT22;3623;47.098;15.446;2022-12-07T07:08:08;-0.80;99.90
7163;DHT22;3623;47.098;15.446;2022-12-07T07:10:37;-0.70;99.90
7163;DHT22;3623;47.098;15.446;2022-12-07T07:13:04;-0.70;99.90
7163;DHT22;3623;47.098;15.446;2022-12-07T07:15:32;-0.50;99.90
7163;DHT22;3623;47.098;15.446;2022-12-07T07:18:00;-0.80;99.90
7163;DHT22;3623;47.098;15.446;2022-12-07T07:20:28;-0.70;99.90
7163;DHT22;3623;47.098;15.446;2022-12-07T07:22:55;-0.80;99.90
7163;DHT22;3623;47.098;15.446;2022-12-07T07:25:24;-0.80;99.90
7163;DHT22;3623;47.098;15.446;2022-12-07T07:27:51;-0.50;99.90
7163;DHT22;3623;47.098;15.446;2022-12-07T07:30:18;-0.80;99.90
7163;DHT22;3623;47.098;15.446;2022-12-07T07:32:45;-0.70;99.90
7163;DHT22;3623;47.098;15.446;2022-12-07T07:35:13;-0.70;99.90
7163;DHT22;3623;47.098;15.446;2022-12-07T07:37:40;-0.60;99.90
7163;DHT22;3623;47.098;15.446;2022-12-07T07:40:17;-0.50;99.90
7163;DHT22;3623;47.098;15.446;2022-12-07T07:42:48;-0.30;99.90
7163;DHT22;3623;47.098;15.446;2022-12-07T07:45:16;-0.20;99.90
7163;DHT22;3623;47.098;15.446;2022-12-07T07:47:43;-0.10;99.90
7163;DHT22;3623;47.098;15.446;2022-12-07T07:50:12;-0.10;99.90
7163;DHT22;3623;47.098;15.446;2022-12-07T07:52:40;0.10;99.90
7163;DHT22;3623;47.098;15.446;2022-12-07T07:55:08;0.20;99.90
7163;DHT22;3623;47.098;15.446;2022-12-07T07:57:35;0.30;99.90
7163;DHT22;3623;47.098;15.446;2022-12-07T08:00:05;0.50;99.90
7163;DHT22;3623;47.098;15.446;2022-12-07T08:02:32;0.30;99.90
7163;DHT22;3623;47.098;15.446;2022-12-07T08:04:59;0.40;99.90
7163;DHT22;3623;47.098;15.446;2022-12-07T08:07:27;0.50;99.90
7163;DHT22;3623;47.098;15.446;2022-12-07T08:09:56;0.50;99.90
7163;DHT22;3623;47.098;15.446;2022-12-07T08:12:23;0.60;99.90
7163;DHT22;3623;47.098;15.446;2022-12-07T08:14:51;0.60;99.90
7163;DHT22;3623;47.098;15.446;2022-12-07T08:17:20;0.60;99.90
7163;DHT22;3623;47.098;15.446;2022-12-07T08:19:47;0.70;99.90
7163;DHT22;3623;47.098;15.446;2022-12-07T08:22:14;0.70;99.90
7163;DHT22;3623;47.098;15.446;2022-12-07T08:24:41;0.80;99.90
7163;DHT22;3623;47.098;15.446;2022-12-07T08:27:08;0.90;99.90
7163;DHT22;3623;47.098;15.446;2022-12-07T08:29:36;1.00;99.90
7163;DHT22;3623;47.098;15.446;2022-12-07T08:32:03;1.20;99.90
7163;DHT22;3623;47.098;15.446;2022-12-07T08:34:32;1.40;99.90
7163;DHT22;3623;47.098;15.446;2022-12-07T08:36:59;1.40;99.90
7163;DHT22;3623;47.098;15.446;2022-12-07T08:39:26;1.50;99.90
7163;DHT22;3623;47.098;15.446;2022-12-07T08:41:53;1.50;99.90
7163;DHT22;3623;47.098;15.446;2022-12-07T08:44:20;1.60;99.90
7163;DHT22;3623;47.098;15.446;2022-12-07T08:46:50;1.60;99.90
7163;DHT22;3623;47.098;15.446;2022-12-07T08:49:21;1.70;99.90
7163;DHT22;3623;47.098;15.446;2022-12-07T08:51:51;1.60;99.90
7163;DHT22;3623;47.098;15.446;2022-12-07T08:54:18;1.50;99.90
7163;DHT22;3623;47.098;15.446;2022-12-07T08:56:47;1.60;99.90
7163;DHT22;3623;47.098;15.446;2022-12-07T08:59:16;1.60;99.90
7163;DHT22;3623;47.098;15.446;2022-12-07T09:01:45;1.60;99.90
7163;DHT22;3623;47.098;15.446;2022-12-07T09:04:12;1.70;99.90
7163;DHT22;3623;47.098;15.446;2022-12-07T09:06:40;1.70;99.90
7163;DHT22;3623;47.098;15.446;2022-12-07T09:09:09;1.80;99.90
7163;DHT22;3623;47.098;15.446;2022-12-07T09:11:37;1.90;99.90
7163;DHT22;3623;47.098;15.446;2022-12-07T09:14:04;1.90;99.90
7163;DHT22;3623;47.098;15.446;2022-12-07T09:16:31;1.90;99.90
7163;DHT22;3623;47.098;15.446;2022-12-07T09:18:59;2.00;99.90
7163;DHT22;3623;47.098;15.446;2022-12-07T09:21:27;2.00;99.90
7163;DHT22;3623;47.098;15.446;2022-12-07T09:23:54;2.10;99.90
7163;DHT22;3623;47.098;15.446;2022-12-07T09:26:22;2.30;99.90
7163;DHT22;3623;47.098;15.446;2022-12-07T09:28:49;2.40;99.90
7163;DHT22;3623;47.098;15.446;2022-12-07T09:31:16;2.30;99.90
7163;DHT22;3623;47.098;15.446;2022-12-07T09:33:43;2.20;99.90
7163;DHT22;3623;47.098;15.446;2022-12-07T09:36:10;2.40;99.90
7163;DHT22;3623;47.098;15.446;2022-12-07T09:38:38;2.50;99.90
7163;DHT22;3623;47.098;15.446;2022-12-07T09:41:06;2.60;99.90
7163;DHT22;3623;47.098;15.446;2022-12-07T09:43:35;2.60;99.90
7163;DHT22;3623;47.098;15.446;2022-12-07T09:46:03;2.70;99.90
7163;DHT22;3623;47.098;15.446;2022-12-07T09:48:33;2.90;99.90
7163;DHT22;3623;47.098;15.446;2022-12-07T09:51:03;3.10;99.90
7163;DHT22;3623;47.098;15.446;2022-12-07T09:53:38;2.80;99.90
7163;DHT22;3623;47.098;15.446;2022-12-07T09:56:06;2.90;99.90
7163;DHT22;3623;47.098;15.446;2022-12-07T09:58:35;2.90;99.90
7163;DHT22;3623;47.098;15.446;2022-12-07T10:01:10;3.10;99.90
7163;DHT22;3623;47.098;15.446;2022-12-07T10:03:40;3.10;99.90
7163;DHT22;3623;47.098;15.446;2022-12-07T10:06:07;3.20;99.90
7163;DHT22;3623;47.098;15.446;2022-12-07T10:08:34;3.20;99.90
7163;DHT22;3623;47.098;15.446;2022-12-07T10:11:02;3.40;99.90
7163;DHT22;3623;47.098;15.446;2022-12-07T10:13:36;3.30;99.90
7163;DHT22;3623;47.098;15.446;2022-12-07T10:16:04;3.60;99.90
7163;DHT22;3623;47.098;15.446;2022-12-07T10:18:33;3.30;99.90
7163;DHT22;3623;47.098;15.446;2022-12-07T10:21:13;3.40;99.90
7163;DHT22;3623;47.098;15.446;2022-12-07T10:23:41;3.50;99.90
7163;DHT22;3623;47.098;15.446;2022-12-07T10:26:28;3.80;99.90
7163;DHT22;3623;47.098;15.446;2022-12-07T10:28:59;4.00;99.90
7163;DHT22;3623;47.098;15.446;2022-12-07T10:31:29;3.80;99.90
7163;DHT22;3623;47.098;15.446;2022-12-07T10:33:57;4.00;99.90
7163;DHT22;3623;47.098;15.446;2022-12-07T10:36:26;4.30;99.90
7163;DHT22;3623;47.098;15.446;2022-12-07T10:39:00;4.10;99.90
7163;DHT22;3623;47.098;15.446;2022-12-07T10:41:27;4.20;99.90
7163;DHT22;3623;47.098;15.446;2022-12-07T10:43:57;4.30;99.90
7163;DHT22;3623;47.098;15.446;2022-12-07T10:52:42;4.40;99.90
7163;DHT22;3623;47.098;15.446;2022-12-07T10:55:19;4.70;99.90
7163;DHT22;3623;47.098;15.446;2022-12-07T10:58:00;5.30;99.90
7163;DHT22;3623;47.098;15.446;2022-12-07T11:00:39;5.70;99.90
7163;DHT22;3623;47.098;15.446;2022-12-07T11:03:29;6.20;99.90
7163;DHT22;3623;47.098;15.446;2022-12-07T11:06:10;6.70;99.90
7163;DHT22;3623;47.098;15.446;2022-12-07T11:08:51;7.50;99.90
7163;DHT22;3623;47.098;15.446;2022-12-07T11:11:29;7.80;99.90
7163;DHT22;3623;47.098;15.446;2022-12-07T11:14:04;8.40;99.90
7163;DHT22;3623;47.098;15.446;2022-12-07T11:16:52;8.40;99.90
7163;DHT22;3623;47.098;15.446;2022-12-07T11:19:39;8.60;99.90
7163;DHT22;3623;47.098;15.446;2022-12-07T11:22:16;8.60;99.90
7163;DHT22;3623;47.098;15.446;2022-12-07T11:24:50;8.10;99.90
7163;DHT22;3623;47.098;15.446;2022-12-07T11:27:28;7.80;99.90
7163;DHT22;3623;47.098;15.446;2022-12-07T11:30:12;7.50;99.90
7163;DHT22;3623;47.098;15.446;2022-12-07T11:32:57;7.10;99.90
7163;DHT22;3623;47.098;15.446;2022-12-07T11:35:36;6.70;99.90
7163;DHT22;3623;47.098;15.446;2022-12-07T11:38:11;6.50;99.90
7163;DHT22;3623;47.098;15.446;2022-12-07T11:40:40;6.30;99.90
7163;DHT22;3623;47.098;15.446;2022-12-07T11:43:18;6.30;99.90
7163;DHT22;3623;47.098;15.446;2022-12-07T11:45:52;6.10;99.90
7163;DHT22;3623;47.098;15.446;2022-12-07T11:48:29;5.80;99.90
7163;DHT22;3623;47.098;15.446;2022-12-07T11:51:00;5.70;99.90
7163;DHT22;3623;47.098;15.446;2022-12-07T11:53:31;5.70;99.90
7163;DHT22;3623;47.098;15.446;2022-12-07T11:56:03;5.60;99.90
7163;DHT22;3623;47.098;15.446;2022-12-07T11:58:41;5.40;99.90
7163;DHT22;3623;47.098;15.446;2022-12-07T12:01:18;5.30;99.90
7163;DHT22;3623;47.098;15.446;2022-12-07T12:03:51;5.60;99.90
7163;DHT22;3623;47.098;15.446;2022-12-07T12:06:20;6.10;99.90
7163;DHT22;3623;47.098;15.446;2022-12-07T12:08:51;7.00;99.90
7163;DHT22;3623;47.098;15.446;2022-12-07T12:11:32;7.80;99.90
7163;DHT22;3623;47.098;15.446;2022-12-07T12:14:22;8.60;99.90
7163;DHT22;3623;47.098;15.446;2022-12-07T12:20:01;8.60;99.90
7163;DHT22;3623;47.098;15.446;2022-12-07T12:22:36;8.20;99.90
7163;DHT22;3623;47.098;15.446;2022-12-07T12:25:06;7.70;99.90
7163;DHT22;3623;47.098;15.446;2022-12-07T12:27:35;7.20;99.90
7163;DHT22;3623;47.098;15.446;2022-12-07T12:30:05;6.80;99.90
7163;DHT22;3623;47.098;15.446;2022-12-07T12:32:37;6.70;99.90
7163;DHT22;3623;47.098;15.446;2022-12-07T12:35:27;6.70;99.90
7163;DHT22;3623;47.098;15.446;2022-12-07T12:38:27;6.80;99.90
7163;DHT22;3623;47.098;15.446;2022-12-07T12:40:55;7.10;99.90
7163;DHT22;3623;47.098;15.446;2022-12-07T12:43:47;7.30;99.90
7163;DHT22;3623;47.098;15.446;2022-12-07T12:46:37;7.50;99.90
7163;DHT22;3623;47.098;15.446;2022-12-07T12:58:42;7.50;99.90
7163;DHT22;3623;47.098;15.446;2022-12-07T13:01:44;7.00;99.90
7163;DHT22;3623;47.098;15.446;2022-12-07T13:04:36;6.60;99.90
7163;DHT22;3623;47.098;15.446;2022-12-07T13:07:10;6.90;99.90
7163;DHT22;3623;47.098;15.446;2022-12-07T13:09:43;7.50;99.90
7163;DHT22;3623;47.098;15.446;2022-12-07T13:12:14;7.70;99.90
7163;DHT22;3623;47.098;15.446;2022-12-07T13:14:54;7.70;99.90
7163;DHT22;3623;47.098;15.446;2022-12-07T13:17:55;7.60;99.90
7163;DHT22;3623;47.098;15.446;2022-12-07T13:20:47;7.20;99.90
7163;DHT22;3623;47.098;15.446;2022-12-07T13:23:18;6.80;99.90
7163;DHT22;3623;47.098;15.446;2022-12-07T13:25:53;6.40;99.90
7163;DHT22;3623;47.098;15.446;2022-12-07T13:28:26;6.20;99.90
7163;DHT22;3623;47.098;15.446;2022-12-07T13:31:13;6.00;99.90
7163;DHT22;3623;47.098;15.446;2022-12-07T13:33:43;5.90;99.90
7163;DHT22;3623;47.098;15.446;2022-12-07T13:36:17;5.50;99.90
7163;DHT22;3623;47.098;15.446;2022-12-07T13:38:50;5.30;99.90
7163;DHT22;3623;47.098;15.446;2022-12-07T13:41:20;5.10;99.90
7163;DHT22;3623;47.098;15.446;2022-12-07T13:43:52;5.00;99.90
7163;DHT22;3623;47.098;15.446;2022-12-07T13:46:25;4.80;99.90
7163;DHT22;3623;47.098;15.446;2022-12-07T13:48:53;4.70;99.90
7163;DHT22;3623;47.098;15.446;2022-12-07T13:51:24;4.60;99.90
7163;DHT22;3623;47.098;15.446;2022-12-07T13:54:08;4.60;99.90
7163;DHT22;3623;47.098;15.446;2022-12-07T13:56:36;4.40;99.90
7163;DHT22;3623;47.098;15.446;2022-12-07T13:59:13;4.30;99.90
7163;DHT22;3623;47.098;15.446;2022-12-07T14:01:40;4.20;99.90
7163;DHT22;3623;47.098;15.446;2022-12-07T14:04:20;4.10;99.90
7163;DHT22;3623;47.098;15.446;2022-12-07T14:06:53;4.10;99.90
7163;DHT22;3623;47.098;15.446;2022-12-07T14:09:22;4.00;99.90
7163;DHT22;3623;47.098;15.446;2022-12-07T14:11:51;4.00;99.90
7163;DHT22;3623;47.098;15.446;2022-12-07T14:14:22;3.90;99.90
7163;DHT22;3623;47.098;15.446;2022-12-07T14:17:01;3.90;99.90
7163;DHT22;3623;47.098;15.446;2022-12-07T14:19:46;3.90;99.90
7163;DHT22;3623;47.098;15.446;2022-12-07T14:22:29;3.80;99.90
7163;DHT22;3623;47.098;15.446;2022-12-07T14:25:09;3.70;99.90
7163;DHT22;3623;47.098;15.446;2022-12-07T14:27:38;3.70;99.90
7163;DHT22;3623;47.098;15.446;2022-12-07T14:30:16;3.70;99.90
7163;DHT22;3623;47.098;15.446;2022-12-07T14:32:43;3.70;99.90
7163;DHT22;3623;47.098;15.446;2022-12-07T14:35:16;3.60;99.90
7163;DHT22;3623;47.098;15.446;2022-12-07T14:37:47;3.60;99.90
7163;DHT22;3623;47.098;15.446;2022-12-07T14:40:16;3.50;99.90
7163;DHT22;3623;47.098;15.446;2022-12-07T14:42:44;3.50;99.90
7163;DHT22;3623;47.098;15.446;2022-12-07T14:45:17;3.40;99.90
7163;DHT22;3623;47.098;15.446;2022-12-07T14:47:44;3.50;99.90
7163;DHT22;3623;47.098;15.446;2022-12-07T14:50:13;3.40;99.90
7163;DHT22;3623;47.098;15.446;2022-12-07T14:52:42;3.40;99.90
7163;DHT22;3623;47.098;15.446;2022-12-07T14:55:20;3.30;99.90
7163;DHT22;3623;47.098;15.446;2022-12-07T14:57:49;3.50;99.90
7163;DHT22;3623;47.098;15.446;2022-12-07T15:00:19;3.20;99.90
7163;DHT22;3623;47.098;15.446;2022-12-07T15:02:47;3.20;99.90
7163;DHT22;3623;47.098;15.446;2022-12-07T15:05:15;3.20;99.90
7163;DHT22;3623;47.098;15.446;2022-12-07T15:07:43;3.30;99.90
7163;DHT22;3623;47.098;15.446;2022-12-07T15:10:15;3.20;99.90
7163;DHT22;3623;47.098;15.446;2022-12-07T15:12:43;3.20;99.90
7163;DHT22;3623;47.098;15.446;2022-12-07T15:15:10;3.20;99.90
7163;DHT22;3623;47.098;15.446;2022-12-07T15:17:39;3.40;99.90
7163;DHT22;3623;47.098;15.446;2022-12-07T15:20:09;3.10;99.90
7163;DHT22;3623;47.098;15.446;2022-12-07T15:22:37;3.10;99.90
7163;DHT22;3623;47.098;15.446;2022-12-07T15:25:05;3.30;99.90
7163;DHT22;3623;47.098;15.446;2022-12-07T15:27:32;3.10;99.90
7163;DHT22;3623;47.098;15.446;2022-12-07T15:30:00;3.00;99.90
7163;DHT22;3623;47.098;15.446;2022-12-07T15:32:27;3.20;99.90
7163;DHT22;3623;47.098;15.446;2022-12-07T15:34:55;3.00;99.90
7163;DHT22;3623;47.098;15.446;2022-12-07T15:37:22;2.90;99.90
7163;DHT22;3623;47.098;15.446;2022-12-07T15:39:49;2.90;99.90
7163;DHT22;3623;47.098;15.446;2022-12-07T15:42:16;3.00;99.90
7163;DHT22;3623;47.098;15.446;2022-12-07T15:44:43;2.80;99.90
7163;DHT22;3623;47.098;15.446;2022-12-07T15:47:28;2.80;99.90
7163;DHT22;3623;47.098;15.446;2022-12-07T15:49:56;2.70;99.90
7163;DHT22;3623;47.098;15.446;2022-12-07T15:52:23;2.80;99.90
7163;DHT22;3623;47.098;15.446;2022-12-07T15:54:50;2.70;99.90
7163;DHT22;3623;47.098;15.446;2022-12-07T15:57:17;2.70;99.90
7163;DHT22;3623;47.098;15.446;2022-12-07T15:59:44;2.70;99.90
7163;DHT22;3623;47.098;15.446;2022-12-07T16:02:11;2.80;99.90
7163;DHT22;3623;47.098;15.446;2022-12-07T16:04:38;2.70;99.90
7163;DHT22;3623;47.098;15.446;2022-12-07T16:07:08;2.80;99.90
7163;DHT22;3623;47.098;15.446;2022-12-07T16:09:37;2.70;99.90
7163;DHT22;3623;47.098;15.446;2022-12-07T16:12:04;2.70;99.90
7163;DHT22;3623;47.098;15.446;2022-12-07T16:14:31;2.70;99.90
7163;DHT22;3623;47.098;15.446;2022-12-07T16:16:59;2.70;99.90
7163;DHT22;3623;47.098;15.446;2022-12-07T16:19:26;2.80;99.90
7163;DHT22;3623;47.098;15.446;2022-12-07T16:21:53;2.80;99.90
7163;DHT22;3623;47.098;15.446;2022-12-07T16:24:21;2.90;99.90
7163;DHT22;3623;47.098;15.446;2022-12-07T16:26:48;2.80;99.90
7163;DHT22;3623;47.098;15.446;2022-12-07T16:29:17;2.90;99.90
7163;DHT22;3623;47.098;15.446;2022-12-07T16:31:44;3.00;99.90
7163;DHT22;3623;47.098;15.446;2022-12-07T16:34:12;2.90;99.90
7163;DHT22;3623;47.098;15.446;2022-12-07T16:36:39;2.90;99.90
7163;DHT22;3623;47.098;15.446;2022-12-07T16:39:06;2.90;99.90